createdAt,value
2018-05-29T00:02:23.904Z,37.40
2018-05-29T00:04:50.533Z,37.13
2018-05-29T00:07:17.340Z,40.40
2018-05-29T00:09:43.978Z,39.53
2018-05-29T00:12:10.618Z,37.00
2018-05-29T00:14:37.242Z,39.23
2018-05-29T00:17:03.897Z,37.93
2018-05-29T00:19:30.542Z,38.73
2018-05-29T00:21:57.191Z,37.93
2018-05-29T00:24:23.816Z,37.33
2018-05-29T00:26:50.456Z,38.17
2018-05-29T00:29:17.103Z,38.83
2018-05-29T00:31:43.723Z,40.60
2018-05-29T00:34:10.367Z,37.13
2018-05-29T00:36:36.978Z,36.83
2018-05-29T00:39:03.630Z,37.37
2018-05-29T00:41:30.262Z,39.00
2018-05-29T00:43:56.906Z,40.97
2018-05-29T00:46:23.540Z,35.87
2018-05-29T00:48:50.203Z,38.20
2018-05-29T00:51:16.823Z,39.37
2018-05-29T00:53:43.544Z,37.70
2018-05-29T00:56:10.166Z,39.83
2018-05-29T00:58:36.831Z,47.90
2018-05-29T01:01:03.464Z,44.27
2018-05-29T01:03:30.207Z,41.67
2018-05-29T01:05:56.841Z,41.87
2018-05-29T01:08:23.470Z,39.23
2018-05-29T01:10:50.784Z,39.47
2018-05-29T01:13:17.433Z,39.38
2018-05-29T01:15:44.103Z,40.70
2018-05-29T01:18:10.750Z,43.80
2018-05-29T01:20:37.405Z,42.20
2018-05-29T01:23:04.043Z,37.07
2018-05-29T01:25:30.702Z,37.10
2018-05-29T01:27:57.339Z,37.20
2018-05-29T01:30:24.134Z,37.60
2018-05-29T01:32:50.783Z,38.80
2018-05-29T01:35:18.060Z,41.90
2018-05-29T01:37:44.677Z,39.10
2018-05-29T01:40:11.342Z,39.08
2018-05-29T01:42:37.977Z,41.58
2018-05-29T01:45:04.653Z,42.38
2018-05-29T01:47:31.310Z,43.30
2018-05-29T01:49:58.040Z,1999.90
2018-05-29T01:52:24.896Z,1999.90
2018-05-29T01:54:51.552Z,1637.07
2018-05-29T01:57:18.214Z,1999.90
2018-05-29T01:59:44.857Z,1999.90
2018-05-29T02:02:11.508Z,1742.03
2018-05-29T02:04:38.180Z,1999.90
2018-05-29T02:07:04.873Z,1999.90
2018-05-29T02:09:31.518Z,1999.90
2018-05-29T02:11:58.190Z,1999.90
2018-05-29T02:14:24.851Z,1999.90
2018-05-29T02:16:51.530Z,1999.90
2018-05-29T02:19:18.154Z,1999.90
2018-05-29T02:21:44.800Z,1999.90
2018-05-29T02:24:11.463Z,1999.90
2018-05-29T02:26:38.135Z,1999.90
2018-05-29T02:29:04.783Z,1999.90
2018-05-29T02:31:31.443Z,1999.90
2018-05-29T02:33:58.101Z,1849.32
2018-05-29T02:36:24.760Z,1252.13
2018-05-29T02:38:51.419Z,1999.90
2018-05-29T02:41:18.203Z,1999.90
2018-05-29T02:43:44.844Z,1999.90
2018-05-29T02:46:11.523Z,1999.90
2018-05-29T02:48:38.872Z,1999.90
2018-05-29T02:51:05.600Z,1374.10
2018-05-29T02:53:32.281Z,1999.90
2018-05-29T02:55:58.963Z,1999.90
2018-05-29T02:58:26.269Z,1999.90
2018-05-29T03:00:52.940Z,1999.90
2018-05-29T03:03:19.592Z,1999.90
2018-05-29T03:05:46.239Z,1999.90
2018-05-29T03:08:12.895Z,1999.90
2018-05-29T03:10:40.527Z,1999.90
2018-05-29T03:13:09.244Z,1999.90
2018-05-29T03:15:35.909Z,1999.90
2018-05-29T03:18:02.557Z,299.27
2018-05-29T03:20:29.207Z,164.23
2018-05-29T03:22:55.834Z,973.58
2018-05-29T03:25:22.495Z,1158.27
2018-05-29T03:27:49.141Z,1999.90
2018-05-29T03:30:15.798Z,1999.90
2018-05-29T03:32:42.429Z,57.78
2018-05-29T03:35:09.078Z,47.72
2018-05-29T03:37:35.703Z,49.00
2018-05-29T03:40:02.344Z,49.17
2018-05-29T03:42:28.987Z,48.60
2018-05-29T03:44:55.614Z,52.03
2018-05-29T03:47:22.271Z,47.25
2018-05-29T03:49:48.902Z,47.15
2018-05-29T03:52:15.564Z,201.52
2018-05-29T03:54:42.202Z,1999.90
2018-05-29T03:59:41.480Z,1999.90
2018-05-29T04:02:08.129Z,45.00
2018-05-29T04:04:34.782Z,1999.90
2018-05-29T04:07:01.443Z,1999.90
2018-05-29T04:09:28.147Z,1999.90
2018-05-29T04:11:54.734Z,1999.90
2018-05-29T04:14:21.394Z,1999.90
2018-05-29T04:16:48.051Z,1999.90
2018-05-29T04:19:14.699Z,1999.90
2018-05-29T04:21:41.382Z,1999.90
2018-05-29T04:24:08.039Z,1999.90
2018-05-29T04:26:34.706Z,1999.90
2018-05-29T04:29:01.354Z,1999.90
2018-05-29T04:31:27.983Z,1999.90
2018-05-29T04:33:54.646Z,1039.73
2018-05-29T04:36:21.305Z,1999.90
2018-05-29T04:38:47.977Z,1999.90
2018-05-29T04:41:14.630Z,1999.90
2018-05-29T04:43:41.331Z,1999.90
2018-05-29T04:46:08.003Z,1999.90
2018-05-29T04:48:34.653Z,1999.90
2018-05-29T04:51:01.283Z,1999.90
2018-05-29T04:53:27.923Z,1999.90
2018-05-29T04:55:54.579Z,1999.90
2018-05-29T04:58:21.937Z,1999.90
2018-05-29T05:00:48.575Z,1999.90
2018-05-29T05:03:15.219Z,1999.90
2018-05-29T05:05:42.032Z,1999.90
2018-05-29T05:08:08.683Z,1999.90
2018-05-29T05:10:35.368Z,1999.90
2018-05-29T05:13:01.998Z,1999.90
2018-05-29T05:15:28.635Z,1999.90
2018-05-29T05:17:55.293Z,1999.90
2018-05-29T05:20:21.943Z,1999.90
2018-05-29T05:22:48.616Z,1999.90
2018-05-29T05:25:16.007Z,1999.90
2018-05-29T05:27:42.682Z,1999.90
2018-05-29T05:30:09.811Z,1999.90
2018-05-29T05:32:36.390Z,1999.90
2018-05-29T05:35:03.055Z,1999.90
2018-05-29T05:37:29.701Z,1999.90
2018-05-29T05:39:56.335Z,1999.90
2018-05-29T05:42:23.024Z,1999.90
2018-05-29T05:44:49.663Z,1999.90
2018-05-29T05:47:16.359Z,1999.90
2018-05-29T05:49:42.999Z,1999.90
2018-05-29T05:52:09.677Z,1999.90
2018-05-29T05:54:36.343Z,1999.90
2018-05-29T05:57:02.995Z,1999.90
2018-05-29T05:59:29.655Z,1999.90
2018-05-29T06:01:56.293Z,1999.90
2018-05-29T06:04:22.923Z,1222.37
2018-05-29T06:06:49.601Z,1999.90
2018-05-29T06:09:16.228Z,1999.90
2018-05-29T06:11:42.888Z,1999.90
2018-05-29T06:14:09.557Z,1999.90
2018-05-29T06:16:36.186Z,1999.90
2018-05-29T06:19:02.844Z,1999.90
2018-05-29T06:21:29.483Z,1999.90
2018-05-29T06:23:56.134Z,1999.90
2018-05-29T06:26:22.783Z,1999.90
2018-05-29T06:28:49.433Z,1999.90
2018-05-29T06:31:16.082Z,1325.37
2018-05-29T06:33:42.732Z,1183.57
2018-05-29T06:36:09.438Z,634.17
2018-05-29T06:38:36.115Z,603.50
2018-05-29T06:41:02.762Z,578.97
2018-05-29T06:43:29.398Z,1119.53
2018-05-29T06:45:56.039Z,277.90
2018-05-29T06:48:25.996Z,933.90
2018-05-29T06:50:52.662Z,574.07
2018-05-29T06:53:19.313Z,874.77
2018-05-29T06:55:45.964Z,1091.30
2018-05-29T06:58:12.655Z,1265.13
2018-05-29T07:00:39.329Z,744.70
2018-05-29T07:03:05.950Z,1236.87
2018-05-29T07:05:32.598Z,1999.90
2018-05-29T07:07:59.239Z,1181.80
2018-05-29T07:10:25.896Z,1999.90
2018-05-29T07:12:52.542Z,1092.83
2018-05-29T07:15:19.205Z,1167.67
2018-05-29T07:17:45.851Z,1999.90
2018-05-29T07:20:12.500Z,1999.90
2018-05-29T07:22:39.151Z,1999.90
2018-05-29T07:25:05.823Z,1999.90
2018-05-29T07:27:32.467Z,1999.90
2018-05-29T07:29:59.115Z,1552.27
2018-05-29T07:32:25.734Z,1999.90
2018-05-29T07:34:52.436Z,1999.90
2018-05-29T07:39:52.202Z,1999.90
2018-05-29T07:42:18.855Z,1992.57
2018-05-29T07:44:45.506Z,1999.90
2018-05-29T07:47:12.147Z,1988.90
2018-05-29T07:49:38.792Z,1999.90
2018-05-29T07:52:05.529Z,1020.30
2018-05-29T07:54:32.088Z,1630.73
2018-05-29T07:56:58.737Z,1999.90
2018-05-29T07:59:25.383Z,1999.90
2018-05-29T08:01:52.024Z,1999.90
2018-05-29T08:04:18.724Z,1277.70
2018-05-29T08:06:45.384Z,1988.80
2018-05-29T08:09:12.031Z,1999.90
2018-05-29T08:11:38.688Z,1180.47
2018-05-29T08:14:05.327Z,1266.47
2018-05-29T08:16:31.976Z,1999.90
2018-05-29T08:18:58.631Z,1186.50
2018-05-29T08:21:25.275Z,1105.23
2018-05-29T08:23:51.968Z,1744.23
2018-05-29T08:26:18.627Z,1999.90
2018-05-29T08:28:45.290Z,1636.90
2018-05-29T08:31:11.923Z,1069.70
2018-05-29T08:33:38.576Z,1463.90
2018-05-29T08:36:05.226Z,738.47
2018-05-29T08:38:31.875Z,576.47
2018-05-29T08:40:58.499Z,498.80
2018-05-29T08:43:25.172Z,1168.97
2018-05-29T08:45:51.804Z,684.63
2018-05-29T08:48:18.456Z,228.10
2018-05-29T08:50:48.416Z,318.57
2018-05-29T08:53:15.065Z,36.60
2018-05-29T08:55:41.699Z,88.73
2018-05-29T08:58:08.377Z,41.70
2018-05-29T09:00:34.998Z,160.33
2018-05-29T09:03:01.718Z,121.10
2018-05-29T09:05:28.361Z,62.70
2018-05-29T09:07:55.087Z,580.33
2018-05-29T09:10:21.731Z,406.73
2018-05-29T09:12:48.380Z,1165.53
2018-05-29T09:15:16.947Z,1294.23
2018-05-29T09:17:43.610Z,1244.80
2018-05-29T09:20:10.240Z,1999.90
2018-05-29T09:22:36.864Z,897.80
2018-05-29T09:25:03.526Z,351.00
2018-05-29T09:27:30.173Z,874.23
2018-05-29T09:29:56.865Z,310.87
2018-05-29T09:32:23.470Z,294.67
2018-05-29T09:34:50.135Z,33.67
2018-05-29T09:37:16.756Z,1095.53
2018-05-29T09:39:43.406Z,40.60
2018-05-29T09:42:10.054Z,932.87
2018-05-29T09:44:36.739Z,1484.87
2018-05-29T09:47:03.356Z,47.97
2018-05-29T09:49:29.995Z,33.80
2018-05-29T09:51:56.651Z,1423.33
2018-05-29T09:54:23.296Z,64.73
2018-05-29T09:56:49.946Z,175.63
2018-05-29T09:59:16.575Z,37.07
2018-05-29T10:01:43.229Z,48.27
2018-05-29T10:04:09.929Z,269.53
2018-05-29T10:06:36.603Z,351.43
2018-05-29T10:09:03.237Z,34.77
2018-05-29T10:11:29.882Z,148.97
2018-05-29T10:13:56.519Z,363.83
2018-05-29T10:16:23.201Z,37.60
2018-05-29T10:18:49.833Z,727.27
2018-05-29T10:21:16.481Z,33.50
2018-05-29T10:23:43.155Z,853.53
2018-05-29T10:26:09.805Z,100.67
2018-05-29T10:28:36.432Z,37.23
2018-05-29T10:31:03.136Z,113.77
2018-05-29T10:33:29.765Z,40.17
2018-05-29T10:35:56.424Z,39.60
2018-05-29T10:38:23.067Z,41.10
2018-05-29T10:40:49.707Z,70.43
2018-05-29T10:43:16.360Z,32.90
2018-05-29T10:45:43.027Z,283.40
2018-05-29T10:48:09.695Z,37.30
2018-05-29T10:50:36.372Z,31.27
2018-05-29T10:53:03.055Z,33.90
2018-05-29T10:55:29.679Z,55.73
2018-05-29T10:58:00.212Z,30.87
2018-05-29T11:00:26.838Z,33.97
2018-05-29T11:02:53.491Z,31.37
2018-05-29T11:05:20.137Z,33.60
2018-05-29T11:07:46.775Z,30.67
2018-05-29T11:10:13.489Z,214.23
2018-05-29T11:12:40.147Z,96.83
2018-05-29T11:15:06.800Z,33.87
2018-05-29T11:17:33.426Z,28.40
2018-05-29T11:20:00.165Z,29.40
2018-05-29T11:22:26.771Z,282.77
2018-05-29T11:24:53.464Z,29.03
2018-05-29T11:27:20.093Z,28.40
2018-05-29T11:29:46.750Z,33.73
2018-05-29T11:32:13.430Z,26.20
2018-05-29T11:34:40.060Z,36.20
2018-05-29T11:37:10.492Z,26.20
2018-05-29T11:39:37.137Z,27.87
2018-05-29T11:42:03.788Z,27.90
2018-05-29T11:44:30.450Z,27.30
2018-05-29T11:46:57.106Z,28.40
2018-05-29T11:49:23.779Z,28.47
2018-05-29T11:51:50.441Z,29.90
2018-05-29T11:54:17.084Z,30.13
2018-05-29T11:56:43.743Z,32.47
2018-05-29T11:59:10.401Z,30.37
2018-05-29T12:01:37.061Z,32.07
2018-05-29T12:04:03.717Z,29.37
2018-05-29T12:06:30.384Z,33.73
2018-05-29T12:08:57.006Z,33.03
2018-05-29T12:11:23.676Z,38.83
2018-05-29T12:13:50.340Z,28.90
2018-05-29T12:16:17.028Z,31.50
2018-05-29T12:18:43.636Z,28.80
2018-05-29T12:21:10.303Z,30.10
2018-05-29T12:23:36.927Z,34.57
2018-05-29T12:26:03.963Z,29.83
2018-05-29T12:28:30.544Z,27.70
2018-05-29T12:30:57.228Z,27.87
2018-05-29T12:33:23.896Z,31.10
2018-05-29T12:35:50.528Z,27.07
2018-05-29T12:38:17.178Z,30.50
2018-05-29T12:40:43.811Z,31.33
2018-05-29T12:43:10.461Z,29.00
2018-05-29T12:45:37.098Z,30.80
2018-05-29T12:48:04.249Z,28.57
2018-05-29T12:50:30.880Z,28.20
2018-05-29T12:52:57.523Z,27.30
2018-05-29T12:55:24.199Z,27.70
2018-05-29T12:57:50.848Z,31.83
2018-05-29T13:00:17.511Z,27.70
2018-05-29T13:02:44.188Z,30.03
2018-05-29T13:05:10.841Z,27.53
2018-05-29T13:07:37.491Z,29.57
2018-05-29T13:10:04.144Z,29.57
2018-05-29T13:12:30.763Z,28.77
2018-05-29T13:14:57.474Z,30.03
2018-05-29T13:17:24.079Z,29.57
2018-05-29T13:19:50.728Z,30.10
2018-05-29T13:22:17.372Z,30.37
2018-05-29T13:24:44.048Z,27.63
2018-05-29T13:27:10.732Z,27.00
2018-05-29T13:29:37.347Z,27.00
2018-05-29T13:32:04.024Z,36.67
2018-05-29T13:34:30.678Z,29.60
2018-05-29T13:36:57.324Z,29.00
2018-05-29T13:39:23.980Z,33.60
2018-05-29T13:41:50.634Z,173.97
2018-05-29T13:44:17.280Z,34.03
2018-05-29T13:46:43.932Z,28.73
2018-05-29T13:49:10.603Z,88.50
2018-05-29T13:51:37.251Z,49.33
2018-05-29T13:54:03.885Z,105.97
2018-05-29T13:56:30.549Z,51.63
2018-05-29T13:58:57.178Z,153.87
2018-05-29T14:01:23.827Z,387.60
2018-05-29T14:03:50.452Z,253.57
2018-05-29T14:06:17.103Z,423.83
2018-05-29T14:08:43.744Z,897.73
2018-05-29T14:11:10.433Z,403.43
2018-05-29T14:13:37.066Z,41.50
2018-05-29T14:16:03.704Z,242.13
2018-05-29T14:18:30.409Z,39.33
2018-05-29T14:20:57.049Z,107.07
2018-05-29T14:23:23.735Z,683.70
2018-05-29T14:25:50.413Z,281.33
2018-05-29T14:28:17.128Z,111.97
2018-05-29T14:30:43.771Z,58.80
2018-05-29T14:33:10.420Z,800.73
2018-05-29T14:35:37.085Z,392.90
2018-05-29T14:38:03.762Z,1037.47
2018-05-29T14:40:30.453Z,260.13
2018-05-29T14:42:57.134Z,83.83
2018-05-29T14:45:23.792Z,67.50
2018-05-29T14:47:50.482Z,176.00
2018-05-29T14:50:17.185Z,273.00
2018-05-29T14:52:43.877Z,935.93
2018-05-29T14:55:10.544Z,746.70
2018-05-29T14:57:37.212Z,1043.43
2018-05-29T15:00:03.873Z,1079.03
2018-05-29T15:02:30.533Z,413.60
2018-05-29T15:04:57.194Z,127.77
2018-05-29T15:07:23.851Z,332.43
2018-05-29T15:09:50.490Z,35.87
2018-05-29T15:12:17.148Z,614.37
2018-05-29T15:14:43.818Z,75.90
2018-05-29T15:17:10.475Z,211.90
2018-05-29T15:19:37.154Z,1561.37
2018-05-29T15:22:03.824Z,799.53
2018-05-29T15:24:30.475Z,941.70
2018-05-29T15:26:57.162Z,1254.83
2018-05-29T15:29:24.572Z,916.90
2018-05-29T15:31:51.223Z,516.63
2018-05-29T15:34:17.884Z,1999.90
2018-05-29T15:36:44.583Z,1999.90
2018-05-29T15:39:11.244Z,1999.90
2018-05-29T15:41:38.030Z,1999.90
2018-05-29T15:44:04.684Z,1999.90
2018-05-29T15:46:31.335Z,1999.90
2018-05-29T15:48:58.001Z,1999.90
2018-05-29T15:51:24.687Z,1999.90
2018-05-29T15:53:51.364Z,1999.90
2018-05-29T15:56:18.178Z,1999.90
2018-05-29T15:58:44.848Z,1999.90
2018-05-29T16:01:11.497Z,1999.90
2018-05-29T16:03:38.223Z,1999.90
2018-05-29T16:06:04.888Z,1999.90
2018-05-29T16:08:31.558Z,1999.90
2018-05-29T16:10:58.243Z,1999.90
2018-05-29T16:13:24.951Z,1999.90
2018-05-29T16:15:51.585Z,1999.90
2018-05-29T16:18:18.261Z,1999.90
2018-05-29T16:20:44.994Z,1769.47
2018-05-29T16:23:11.758Z,1999.90
2018-05-29T16:25:38.413Z,1999.90
2018-05-29T16:28:05.072Z,1842.50
2018-05-29T16:30:31.897Z,1999.90
2018-05-29T16:32:58.586Z,1405.47
2018-05-29T16:35:25.256Z,1971.77
2018-05-29T16:37:51.940Z,1999.90
2018-05-29T16:40:18.641Z,1999.90
2018-05-29T16:42:45.343Z,1999.90
2018-05-29T16:45:12.040Z,1999.90
2018-05-29T16:47:38.708Z,1999.90
2018-05-29T16:50:05.380Z,1999.90
2018-05-29T16:52:32.037Z,1999.90
2018-05-29T16:54:58.738Z,1999.90
2018-05-29T16:57:26.303Z,1999.90
2018-05-29T16:59:52.992Z,1999.90
2018-05-29T17:02:19.743Z,1999.90
2018-05-29T17:04:46.435Z,1999.90
2018-05-29T17:07:13.187Z,1999.90
2018-05-29T17:09:39.853Z,1999.90
2018-05-29T17:12:06.591Z,1999.90
2018-05-29T17:14:33.884Z,1999.90
2018-05-29T17:17:00.596Z,1999.90
2018-05-29T17:19:27.265Z,1999.90
2018-05-29T17:21:53.983Z,1999.90
2018-05-29T17:24:20.623Z,1999.90
2018-05-29T17:26:47.610Z,1999.90
2018-05-29T17:29:14.287Z,1999.90
2018-05-29T17:31:40.962Z,1999.90
2018-05-29T17:34:07.653Z,1999.90
2018-05-29T17:36:34.315Z,1999.90
2018-05-29T17:39:01.052Z,1999.90
2018-05-29T17:41:27.719Z,1999.90
2018-05-29T17:43:54.447Z,1999.90
2018-05-29T17:46:21.117Z,1999.90
2018-05-29T17:48:47.849Z,1999.90
2018-05-29T17:51:14.504Z,1999.90
2018-05-29T17:53:41.235Z,1999.90
2018-05-29T17:56:08.116Z,1999.90
2018-05-29T17:58:34.840Z,1999.90
2018-05-29T18:01:01.670Z,1999.90
2018-05-29T18:03:28.570Z,1999.90
2018-05-29T18:05:55.247Z,1999.90
2018-05-29T18:08:22.090Z,1999.90
2018-05-29T18:10:49.006Z,1999.90
2018-05-29T18:13:20.112Z,1999.90
2018-05-29T18:15:47.107Z,1999.90
2018-05-29T18:18:14.017Z,1999.90
2018-05-29T18:20:40.755Z,1999.90
2018-05-29T18:23:07.536Z,1999.90
2018-05-29T18:25:34.425Z,1999.90
2018-05-29T18:28:01.278Z,1999.90
2018-05-29T18:30:28.402Z,1999.90
2018-05-29T18:32:55.203Z,1999.90
2018-05-29T18:35:21.929Z,1999.90
2018-05-29T18:37:48.680Z,1999.90
2018-05-29T18:40:15.390Z,1999.90
2018-05-29T18:42:42.105Z,1999.90
2018-05-29T18:45:08.790Z,1999.90
2018-05-29T18:47:35.489Z,1999.90
2018-05-29T18:50:02.181Z,1999.90
2018-05-29T18:52:28.912Z,1999.90
2018-05-29T18:54:55.588Z,1999.90
2018-05-29T18:57:22.290Z,1999.90
2018-05-29T18:59:49.026Z,1999.90
2018-05-29T19:02:15.714Z,1999.90
2018-05-29T19:04:42.423Z,1999.90
2018-05-29T19:07:09.118Z,1999.90
2018-05-29T19:09:35.817Z,1999.90
2018-05-29T19:12:02.597Z,1999.90
2018-05-29T19:14:29.299Z,1999.90
2018-05-29T19:16:56.079Z,1999.90
2018-05-29T19:19:22.736Z,1999.90
2018-05-29T19:21:49.403Z,1999.90
2018-05-29T19:24:16.109Z,1999.90
2018-05-29T19:26:46.634Z,1999.90
2018-05-29T19:29:13.929Z,1999.90
2018-05-29T19:31:40.870Z,1999.90
2018-05-29T19:34:12.880Z,1999.90
2018-05-29T19:36:40.372Z,1999.90
2018-05-29T19:39:07.063Z,1999.90
2018-05-29T19:41:33.763Z,1999.90
2018-05-29T19:44:00.520Z,1999.90
2018-05-29T19:46:27.240Z,1999.90
2018-05-29T19:48:53.915Z,1999.90
2018-05-29T19:51:20.654Z,1999.90
2018-05-29T19:53:47.369Z,1999.90
2018-05-29T19:56:14.098Z,1999.90
2018-05-29T19:58:40.786Z,1999.90
2018-05-29T20:01:07.514Z,1999.90
2018-05-29T20:03:35.046Z,1999.90
2018-05-29T20:06:01.736Z,1999.90
2018-05-29T20:08:28.430Z,1999.90
2018-05-29T20:10:55.176Z,1999.90
2018-05-29T20:13:21.942Z,1999.90
2018-05-29T20:15:48.625Z,1999.90
2018-05-29T20:18:19.209Z,1999.90
2018-05-29T20:20:45.915Z,1999.90
2018-05-29T20:23:12.596Z,1999.90
2018-05-29T20:25:39.290Z,1999.90
2018-05-29T20:28:05.942Z,1999.90
2018-05-29T20:30:32.641Z,1999.90
2018-05-29T20:32:59.344Z,1999.90
2018-05-29T20:35:26.188Z,1999.90
2018-05-29T20:37:52.825Z,1999.90
2018-05-29T20:40:19.539Z,1999.90
2018-05-29T20:42:46.720Z,1999.90
2018-05-29T20:45:14.271Z,1999.90
2018-05-29T20:47:40.992Z,1999.90
2018-05-29T20:50:07.729Z,1999.90
2018-05-29T20:52:34.375Z,1999.90
2018-05-29T20:55:01.072Z,1999.90
2018-05-29T20:57:29.037Z,1999.90
2018-05-29T20:59:56.660Z,1999.90
2018-05-29T21:02:23.337Z,1999.90
2018-05-29T21:04:50.861Z,1999.90
2018-05-29T21:07:17.580Z,1999.90
2018-05-29T21:09:44.903Z,1999.90
2018-05-29T21:12:11.598Z,1999.90
2018-05-29T21:14:38.268Z,1999.90
2018-05-29T21:17:04.970Z,1999.90
2018-05-29T21:19:31.666Z,1999.90
2018-05-29T21:21:58.338Z,1999.90
2018-05-29T21:24:25.023Z,1999.90
2018-05-29T21:26:51.687Z,1999.90
2018-05-29T21:29:18.392Z,1999.90
2018-05-29T21:31:45.055Z,1999.90
2018-05-29T21:34:11.745Z,1999.90
2018-05-29T21:36:38.439Z,1999.90
2018-05-29T21:39:05.105Z,1999.90
2018-05-29T21:41:32.442Z,1999.90
2018-05-29T21:43:59.107Z,1999.90
2018-05-29T21:46:25.820Z,1999.90
2018-05-29T21:48:53.242Z,1999.90
2018-05-29T21:51:19.920Z,1999.90
2018-05-29T21:53:47.207Z,1999.90
2018-05-29T21:56:14.587Z,1999.90
2018-05-29T21:58:45.064Z,1999.90
2018-05-29T22:01:12.391Z,1999.90
2018-05-29T22:03:39.071Z,1999.90
2018-05-29T22:06:05.854Z,1777.05
2018-05-29T22:08:32.517Z,1999.90
2018-05-29T22:10:59.183Z,1774.17
2018-05-29T22:13:25.879Z,1689.93
2018-05-29T22:15:52.546Z,1645.43
2018-05-29T22:18:19.211Z,1743.17
2018-05-29T22:20:49.420Z,1785.93
2018-05-29T22:23:16.103Z,1322.93
2018-05-29T22:25:43.406Z,1536.85
2018-05-29T22:28:10.092Z,1703.13
2018-05-29T22:30:36.772Z,1668.95
2018-05-29T22:33:04.087Z,1622.18
2018-05-29T22:35:30.734Z,1629.50
2018-05-29T22:37:57.405Z,1477.80
2018-05-29T22:40:24.090Z,1505.30
2018-05-29T22:42:50.784Z,1441.03
2018-05-29T22:45:17.472Z,1250.87
2018-05-29T22:47:44.179Z,1401.30
2018-05-29T22:50:10.900Z,1483.17
2018-05-29T22:52:37.597Z,1081.97
2018-05-29T22:55:08.652Z,1112.25
2018-05-29T22:57:35.391Z,1083.87
2018-05-29T23:00:02.162Z,1179.50
2018-05-29T23:02:32.787Z,1534.28
2018-05-29T23:04:59.503Z,1999.90
2018-05-29T23:07:26.256Z,1999.90
2018-05-29T23:09:53.592Z,1999.90
2018-05-29T23:12:20.328Z,1999.90
2018-05-29T23:14:47.041Z,1999.90
2018-05-29T23:17:13.782Z,1999.90
2018-05-29T23:19:40.487Z,1999.90
2018-05-29T23:22:07.198Z,1999.90
2018-05-29T23:24:33.975Z,1999.90
2018-05-29T23:27:00.707Z,1999.90
2018-05-29T23:29:27.404Z,1999.90
2018-05-29T23:31:58.167Z,1999.90
2018-05-29T23:34:24.776Z,1999.90
2018-05-29T23:36:51.443Z,1999.90
2018-05-29T23:39:22.329Z,1999.90
2018-05-29T23:41:49.005Z,1999.90
2018-05-29T23:44:15.667Z,1999.90
2018-05-29T23:46:42.321Z,1999.90
2018-05-29T23:49:09.011Z,1999.90
2018-05-29T23:51:35.680Z,1999.90
2018-05-29T23:54:02.325Z,1999.90
2018-05-29T23:56:32.708Z,1999.90
2018-05-29T23:58:59.387Z,1999.90
